createdAt,value
2022-12-03T00:01:20.521Z,49.73
2022-12-03T00:03:48.922Z,50.27
2022-12-03T00:06:18.869Z,49.17
2022-12-03T00:08:47.205Z,55.05
2022-12-03T00:11:15.397Z,52.03
2022-12-03T00:13:43.667Z,54.90
2022-12-03T00:16:11.994Z,52.63
2022-12-03T00:18:40.329Z,56.73
2022-12-03T00:21:08.585Z,57.10
2022-12-03T00:23:42.091Z,56.93
2022-12-03T00:26:10.845Z,54.53
2022-12-03T00:28:39.156Z,54.23
2022-12-03T00:31:07.543Z,54.07
2022-12-03T00:33:35.826Z,54.23
2022-12-03T00:36:04.100Z,54.73
2022-12-03T00:38:32.413Z,55.33
2022-12-03T00:41:02.056Z,54.80
2022-12-03T00:43:30.634Z,51.47
2022-12-03T00:45:58.930Z,50.07
2022-12-03T00:48:27.304Z,54.40
2022-12-03T00:50:55.536Z,50.67
2022-12-03T00:53:23.706Z,51.73
2022-12-03T00:55:51.996Z,52.67
2022-12-03T00:58:21.577Z,52.63
2022-12-03T01:00:49.847Z,56.23
2022-12-03T01:03:18.130Z,49.33
2022-12-03T01:05:46.370Z,52.60
2022-12-03T01:08:14.672Z,53.67
2022-12-03T01:10:42.981Z,48.17
2022-12-03T01:13:11.373Z,51.70
2022-12-03T01:15:41.011Z,51.43
2022-12-03T01:18:09.287Z,48.03
2022-12-03T01:20:38.588Z,49.57
2022-12-03T01:23:07.172Z,51.93
2022-12-03T01:25:35.463Z,56.67
2022-12-03T01:28:03.721Z,52.80
2022-12-03T01:30:52.098Z,48.83
2022-12-03T01:33:20.770Z,53.67
2022-12-03T01:35:49.002Z,52.60
2022-12-03T01:38:17.254Z,52.57
2022-12-03T01:40:46.080Z,53.77
2022-12-03T01:43:14.342Z,52.67
2022-12-03T01:45:42.580Z,54.90
2022-12-03T01:48:13.651Z,52.23
2022-12-03T01:50:43.967Z,53.60
2022-12-03T01:53:18.206Z,50.47
2022-12-03T01:55:48.896Z,50.03
2022-12-03T01:58:18.299Z,51.33
2022-12-03T02:00:46.513Z,53.20
2022-12-03T02:03:22.426Z,51.30
2022-12-03T02:05:52.134Z,51.17
2022-12-03T02:08:30.318Z,48.05
2022-12-03T02:11:00.285Z,50.67
2022-12-03T02:13:28.586Z,53.80
2022-12-03T02:15:57.919Z,56.33
2022-12-03T02:18:26.320Z,53.23
2022-12-03T02:21:06.546Z,53.57
2022-12-03T02:23:41.039Z,55.88
2022-12-03T02:26:10.873Z,57.17
2022-12-03T02:28:39.332Z,55.13
2022-12-03T02:31:08.190Z,55.73
2022-12-03T02:33:36.617Z,52.97
2022-12-03T02:36:05.974Z,55.13
2022-12-03T02:38:35.835Z,55.43
2022-12-03T02:41:09.062Z,54.95
2022-12-03T02:43:38.198Z,58.77
2022-12-03T02:46:09.007Z,56.80
2022-12-03T02:48:39.961Z,54.03
2022-12-03T02:51:11.732Z,56.90
2022-12-03T02:53:44.500Z,58.77
2022-12-03T02:56:16.395Z,54.80
2022-12-03T02:58:48.537Z,54.33
2022-12-03T03:01:17.293Z,54.30
2022-12-03T03:03:47.199Z,60.10
2022-12-03T03:06:16.804Z,56.78
2022-12-03T03:08:46.802Z,53.23
2022-12-03T03:11:15.084Z,51.97
2022-12-03T03:13:45.148Z,58.03
2022-12-03T03:16:13.483Z,54.03
2022-12-03T03:18:41.834Z,54.10
2022-12-03T03:21:10.381Z,55.63
2022-12-03T03:23:38.618Z,58.17
2022-12-03T03:26:09.896Z,54.37
2022-12-03T03:28:41.069Z,58.40
2022-12-03T03:31:13.284Z,56.77
2022-12-03T03:33:43.322Z,55.17
2022-12-03T03:36:12.161Z,54.85
2022-12-03T03:41:14.374Z,55.60
2022-12-03T03:43:45.142Z,53.97
2022-12-03T03:46:15.807Z,55.67
2022-12-03T03:48:44.886Z,53.77
2022-12-03T03:51:14.312Z,53.43
2022-12-03T03:53:45.392Z,54.63
2022-12-03T03:56:14.129Z,55.87
2022-12-03T03:58:42.353Z,52.20
2022-12-03T04:01:12.749Z,54.73
2022-12-03T04:03:42.879Z,51.63
2022-12-03T04:06:12.064Z,48.72
2022-12-03T04:08:40.275Z,51.57
2022-12-03T04:11:25.850Z,55.57
2022-12-03T04:13:54.098Z,54.17
2022-12-03T04:16:22.368Z,53.77
2022-12-03T04:18:52.116Z,51.20
2022-12-03T04:21:46.125Z,60.10
2022-12-03T04:24:14.376Z,52.37
2022-12-03T04:27:05.481Z,60.43
2022-12-03T04:29:33.790Z,53.20
2022-12-03T04:32:21.225Z,54.10
2022-12-03T04:35:08.393Z,53.83
2022-12-03T04:37:36.737Z,53.27
2022-12-03T04:40:26.589Z,55.40
2022-12-03T04:42:54.857Z,54.13
2022-12-03T04:45:23.077Z,54.57
2022-12-03T04:47:51.310Z,57.97
2022-12-03T04:50:20.872Z,57.40
2022-12-03T04:52:49.155Z,53.53
2022-12-03T04:55:17.513Z,55.87
2022-12-03T04:57:45.787Z,56.07
2022-12-03T05:00:15.961Z,53.63
2022-12-03T05:02:44.376Z,56.00
2022-12-03T05:05:12.658Z,54.10
2022-12-03T05:07:42.703Z,55.90
2022-12-03T05:10:12.779Z,53.75
2022-12-03T05:12:41.032Z,60.90
2022-12-03T05:15:10.125Z,55.53
2022-12-03T05:17:38.398Z,59.40
2022-12-03T05:20:26.075Z,58.10
2022-12-03T05:22:55.677Z,60.27
2022-12-03T05:25:23.914Z,58.93
2022-12-03T05:27:52.157Z,57.07
2022-12-03T05:30:20.504Z,60.43
2022-12-03T05:32:48.953Z,57.43
2022-12-03T05:35:17.430Z,62.27
2022-12-03T05:37:45.682Z,60.97
2022-12-03T05:40:16.343Z,64.90
2022-12-03T05:43:01.289Z,58.47
2022-12-03T05:45:32.118Z,60.57
2022-12-03T05:48:01.531Z,55.00
2022-12-03T05:50:33.141Z,56.30
2022-12-03T05:53:17.320Z,53.10
2022-12-03T05:55:46.983Z,56.55
2022-12-03T05:58:15.187Z,58.40
2022-12-03T06:00:43.417Z,60.17
2022-12-03T06:03:12.065Z,57.63
2022-12-03T06:05:40.413Z,56.50
2022-12-03T06:08:08.666Z,55.87
2022-12-03T06:10:37.529Z,59.23
2022-12-03T06:13:07.159Z,58.37
2022-12-03T06:15:38.915Z,58.40
2022-12-03T06:18:11.663Z,56.47
2022-12-03T06:20:40.029Z,62.10
2022-12-03T06:23:08.264Z,57.23
2022-12-03T06:25:36.517Z,58.27
2022-12-03T06:28:07.330Z,58.23
2022-12-03T06:30:35.929Z,58.13
2022-12-03T06:33:04.210Z,56.27
2022-12-03T06:35:33.053Z,53.80
2022-12-03T06:38:01.261Z,55.67
2022-12-03T06:40:29.620Z,59.90
2022-12-03T06:42:57.837Z,60.23
2022-12-03T06:45:27.408Z,55.57
2022-12-03T06:47:55.609Z,60.53
2022-12-03T06:50:23.836Z,60.37
2022-12-03T06:52:52.081Z,58.10
2022-12-03T06:55:20.253Z,57.80
2022-12-03T06:57:48.478Z,65.40
2022-12-03T07:00:17.404Z,59.37
2022-12-03T07:02:47.090Z,60.67
2022-12-03T07:05:15.471Z,56.88
2022-12-03T07:07:43.689Z,59.60
2022-12-03T07:10:14.802Z,57.73
2022-12-03T07:12:43.135Z,54.63
2022-12-03T07:15:12.060Z,57.00
2022-12-03T07:17:40.438Z,55.90
2022-12-03T07:20:11.613Z,58.87
2022-12-03T07:22:40.177Z,60.97
2022-12-03T07:25:09.631Z,61.27
2022-12-03T07:27:37.863Z,60.50
2022-12-03T07:30:08.097Z,58.43
2022-12-03T07:32:36.394Z,58.70
2022-12-03T07:35:07.317Z,59.53
2022-12-03T07:37:37.012Z,61.60
2022-12-03T07:40:07.012Z,58.38
2022-12-03T07:42:35.283Z,61.80
2022-12-03T07:45:03.667Z,62.10
2022-12-03T07:47:32.032Z,64.93
2022-12-03T07:50:00.241Z,66.40
2022-12-03T07:52:28.554Z,63.40
2022-12-03T07:54:58.125Z,61.17
2022-12-03T07:57:26.374Z,63.07
2022-12-03T07:59:54.569Z,62.23
2022-12-03T08:02:22.869Z,66.47
2022-12-03T08:04:51.347Z,70.40
2022-12-03T08:07:19.721Z,73.63
2022-12-03T08:09:47.962Z,64.13
2022-12-03T08:12:39.946Z,64.53
2022-12-03T08:15:14.919Z,73.43
2022-12-03T08:17:44.361Z,70.13
2022-12-03T08:20:16.845Z,70.20
2022-12-03T08:22:47.499Z,66.80
2022-12-03T08:25:22.531Z,72.27
2022-12-03T08:27:56.021Z,73.40
2022-12-03T08:30:24.931Z,65.53
2022-12-03T08:32:53.497Z,63.73
2022-12-03T08:35:26.184Z,65.20
2022-12-03T08:38:03.053Z,63.27
2022-12-03T08:40:37.609Z,64.90
2022-12-03T08:43:16.084Z,71.77
2022-12-03T08:45:44.377Z,66.17
2022-12-03T08:48:34.457Z,66.37
2022-12-03T08:51:10.516Z,66.43
2022-12-03T08:53:45.895Z,66.50
2022-12-03T08:56:24.045Z,69.20
2022-12-03T08:58:57.222Z,64.40
2022-12-03T09:01:40.434Z,69.20
2022-12-03T09:04:28.914Z,69.23
2022-12-03T09:06:58.439Z,67.97
2022-12-03T09:09:27.423Z,67.67
2022-12-03T09:11:56.384Z,67.57
2022-12-03T09:14:26.133Z,64.60
2022-12-03T09:16:55.846Z,62.60
2022-12-03T09:19:25.348Z,60.03
2022-12-03T09:21:53.920Z,64.27
2022-12-03T09:24:22.804Z,59.63
2022-12-03T09:26:51.422Z,63.63
2022-12-03T09:29:19.703Z,66.07
2022-12-03T09:31:49.315Z,68.80
2022-12-03T09:34:17.738Z,62.13
2022-12-03T09:36:46.007Z,62.80
2022-12-03T09:39:14.317Z,64.20
2022-12-03T09:41:44.144Z,68.73
2022-12-03T09:44:17.552Z,65.43
2022-12-03T09:46:49.371Z,62.33
2022-12-03T09:49:19.768Z,65.50
2022-12-03T09:51:48.398Z,65.95
2022-12-03T09:54:24.936Z,66.70
2022-12-03T09:56:54.854Z,68.30
2022-12-03T09:59:24.770Z,74.97
2022-12-03T10:01:55.494Z,66.63
2022-12-03T10:04:23.975Z,65.10
2022-12-03T10:06:52.963Z,64.30
2022-12-03T10:09:30.300Z,62.37
2022-12-03T10:12:00.305Z,70.27
2022-12-03T10:14:29.314Z,71.43
2022-12-03T10:16:59.908Z,71.70
2022-12-03T10:19:32.598Z,69.00
2022-12-03T10:22:01.107Z,71.67
2022-12-03T10:24:31.548Z,72.27
2022-12-03T10:27:01.655Z,74.50
2022-12-03T10:29:34.394Z,74.85
2022-12-03T10:32:07.177Z,76.70
2022-12-03T10:34:38.120Z,82.93
2022-12-03T10:37:16.325Z,80.03
2022-12-03T10:39:59.994Z,81.57
2022-12-03T10:42:30.519Z,88.03
2022-12-03T10:47:40.164Z,85.82
2022-12-03T10:50:18.535Z,94.38
2022-12-03T10:52:47.935Z,86.37
2022-12-03T10:55:17.349Z,80.60
2022-12-03T10:57:47.055Z,86.25
2022-12-03T11:00:19.513Z,76.80
2022-12-03T11:02:54.828Z,83.83
2022-12-03T11:05:28.060Z,74.67
2022-12-03T11:07:57.458Z,75.37
2022-12-03T11:10:26.285Z,80.33
2022-12-03T11:13:46.455Z,75.10
2022-12-03T11:16:16.076Z,78.20
2022-12-03T11:19:03.530Z,82.20
2022-12-03T11:21:32.325Z,79.67
2022-12-03T11:24:20.547Z,83.17
2022-12-03T11:27:20.629Z,84.37
2022-12-03T11:29:56.067Z,82.47
2022-12-03T11:33:21.158Z,82.90
2022-12-03T11:36:15.463Z,80.43
2022-12-03T11:38:56.394Z,82.30
2022-12-03T11:41:31.911Z,82.70
2022-12-03T11:44:33.690Z,91.07
2022-12-03T11:47:15.729Z,83.43
2022-12-03T11:49:49.137Z,83.77
2022-12-03T11:52:27.658Z,85.30
2022-12-03T11:55:02.253Z,84.43
2022-12-03T11:57:37.830Z,89.47
2022-12-03T12:00:22.973Z,90.27
2022-12-03T12:02:52.952Z,90.97
2022-12-03T12:05:26.476Z,87.47
2022-12-03T12:07:57.031Z,89.40
2022-12-03T12:10:45.131Z,84.93
2022-12-03T12:13:49.942Z,83.90
2022-12-03T12:16:45.977Z,84.63
2022-12-03T12:19:39.958Z,87.73
2022-12-03T12:22:36.696Z,93.50
2022-12-03T12:25:36.080Z,87.27
2022-12-03T12:28:04.469Z,93.53
2022-12-03T12:30:32.632Z,92.27
2022-12-03T12:33:13.012Z,86.97
2022-12-03T12:35:42.875Z,90.95
2022-12-03T12:38:21.937Z,86.78
2022-12-03T12:40:52.182Z,82.27
2022-12-03T12:43:25.006Z,91.43
2022-12-03T12:45:55.570Z,82.63
2022-12-03T12:48:27.424Z,79.15
2022-12-03T12:51:02.186Z,81.67
2022-12-03T12:53:33.822Z,73.70
2022-12-03T12:56:14.440Z,79.00
2022-12-03T13:01:21.560Z,77.13
2022-12-03T13:03:53.233Z,79.37
2022-12-03T13:06:27.585Z,81.47
2022-12-03T13:08:56.173Z,90.87
2022-12-03T13:11:39.511Z,85.27
2022-12-03T13:14:17.185Z,90.83
2022-12-03T13:16:46.210Z,91.00
2022-12-03T13:19:26.493Z,95.13
2022-12-03T13:21:56.234Z,107.43
2022-12-03T13:24:33.240Z,108.22
2022-12-03T13:27:22.947Z,99.67
2022-12-03T13:29:56.697Z,97.97
2022-12-03T13:32:30.943Z,100.87
2022-12-03T13:35:05.557Z,97.80
2022-12-03T13:37:34.039Z,99.27
2022-12-03T13:40:21.202Z,102.57
2022-12-03T13:42:52.525Z,104.83
2022-12-03T13:45:42.015Z,101.70
2022-12-03T13:48:21.058Z,116.67
2022-12-03T13:50:49.600Z,112.33
2022-12-03T13:53:23.441Z,102.47
2022-12-03T13:55:55.277Z,107.37
2022-12-03T13:58:24.847Z,93.30
2022-12-03T14:00:53.207Z,105.57
2022-12-03T14:03:23.376Z,92.30
2022-12-03T14:05:51.653Z,94.88
2022-12-03T14:08:20.187Z,94.80
2022-12-03T14:10:48.563Z,91.40
2022-12-03T14:13:16.799Z,91.17
2022-12-03T14:15:46.392Z,76.77
2022-12-03T14:18:14.670Z,73.15
2022-12-03T14:20:42.897Z,77.10
2022-12-03T14:23:11.233Z,77.53
2022-12-03T14:25:39.483Z,73.77
2022-12-03T14:28:09.518Z,75.23
2022-12-03T14:30:37.837Z,68.75
2022-12-03T14:33:07.453Z,72.87
2022-12-03T14:35:37.158Z,75.97
2022-12-03T14:38:05.416Z,67.80
2022-12-03T14:40:33.695Z,63.67
2022-12-03T14:43:01.917Z,68.00
2022-12-03T14:45:30.593Z,62.27
2022-12-03T14:47:58.906Z,61.53
2022-12-03T14:50:28.517Z,60.93
2022-12-03T14:52:56.836Z,56.30
2022-12-03T14:55:25.184Z,61.30
2022-12-03T14:57:53.402Z,63.27
2022-12-03T15:00:23.777Z,56.15
2022-12-03T15:02:52.209Z,59.70
2022-12-03T15:05:28.034Z,58.37
2022-12-03T15:07:58.330Z,58.67
2022-12-03T15:10:26.543Z,58.90
2022-12-03T15:12:54.739Z,66.47
2022-12-03T15:15:22.987Z,63.73
2022-12-03T15:17:51.169Z,81.83
2022-12-03T15:20:19.939Z,78.90
2022-12-03T15:22:48.215Z,81.10
2022-12-03T15:25:24.225Z,79.60
2022-12-03T15:27:52.548Z,80.90
2022-12-03T15:30:21.357Z,80.30
2022-12-03T15:32:49.614Z,87.87
2022-12-03T15:35:18.619Z,88.70
2022-12-03T15:37:47.090Z,88.47
2022-12-03T15:40:17.173Z,89.10
2022-12-03T15:42:45.456Z,90.07
2022-12-03T15:45:15.446Z,84.80
2022-12-03T15:47:44.010Z,94.38
2022-12-03T15:50:13.469Z,90.40
2022-12-03T15:52:41.931Z,88.47
2022-12-03T15:55:11.165Z,88.67
2022-12-03T15:57:40.816Z,88.23
2022-12-03T16:00:12.573Z,86.63
2022-12-03T16:02:40.939Z,90.67
2022-12-03T16:05:12.928Z,90.43
2022-12-03T16:07:41.412Z,86.30
2022-12-03T16:10:12.217Z,88.73
2022-12-03T16:12:41.842Z,88.73
2022-12-03T16:15:10.915Z,89.03
2022-12-03T16:17:39.157Z,93.37
2022-12-03T16:20:09.294Z,95.30
2022-12-03T16:22:37.496Z,91.88
2022-12-03T16:25:07.168Z,88.10
2022-12-03T16:27:37.036Z,92.85
2022-12-03T16:30:09.402Z,94.60
2022-12-03T16:32:37.699Z,91.43
2022-12-03T16:35:06.806Z,97.63
2022-12-03T16:37:35.093Z,90.43
2022-12-03T16:40:03.410Z,97.80
2022-12-03T16:42:31.693Z,90.07
2022-12-03T16:45:22.861Z,86.83
2022-12-03T16:47:52.461Z,89.57
2022-12-03T16:50:27.587Z,90.07
2022-12-03T16:52:57.965Z,88.60
2022-12-03T16:55:26.456Z,98.63
2022-12-03T16:57:54.755Z,84.97
2022-12-03T17:00:23.229Z,92.90
2022-12-03T17:02:52.953Z,87.67
2022-12-03T17:05:21.422Z,90.63
2022-12-03T17:07:49.749Z,96.80
2022-12-03T17:10:18.275Z,93.33
2022-12-03T17:13:10.063Z,88.03
2022-12-03T17:15:35.046Z,87.80
2022-12-03T17:18:05.251Z,89.50
2022-12-03T17:20:34.549Z,83.93
2022-12-03T17:23:03.434Z,84.47
2022-12-03T17:25:32.067Z,79.97
2022-12-03T17:28:00.352Z,78.27
2022-12-03T17:30:28.653Z,76.03
2022-12-03T17:32:57.817Z,71.17
2022-12-03T17:35:28.518Z,75.87
2022-12-03T17:37:56.935Z,71.23
2022-12-03T17:40:25.163Z,73.40
2022-12-03T17:42:53.441Z,65.37
2022-12-03T17:45:21.657Z,69.40
2022-12-03T17:47:49.884Z,64.77
2022-12-03T17:50:18.181Z,66.77
2022-12-03T17:52:47.762Z,66.43
2022-12-03T17:55:26.123Z,64.68
2022-12-03T17:57:56.278Z,61.65
2022-12-03T18:00:24.782Z,65.90
2022-12-03T18:02:53.055Z,67.23
2022-12-03T18:05:22.974Z,64.77
2022-12-03T18:07:53.070Z,62.65
2022-12-03T18:10:21.355Z,63.90
2022-12-03T18:12:49.787Z,72.60
2022-12-03T18:15:18.630Z,68.73
2022-12-03T18:17:49.829Z,72.60
2022-12-03T18:20:18.475Z,75.60
2022-12-03T18:22:46.739Z,77.43
2022-12-03T18:25:18.006Z,77.87
2022-12-03T18:27:47.600Z,73.43
2022-12-03T18:30:16.320Z,77.00
2022-12-03T18:32:44.613Z,82.40
2022-12-03T18:35:13.041Z,77.53
2022-12-03T18:37:41.472Z,82.70
2022-12-03T18:40:20.096Z,93.10
2022-12-03T18:42:48.653Z,86.90
2022-12-03T18:45:17.352Z,90.73
2022-12-03T18:47:46.410Z,89.37
2022-12-03T18:50:14.883Z,95.47
2022-12-03T18:52:43.241Z,90.67
2022-12-03T18:55:19.661Z,91.23
2022-12-03T18:57:47.923Z,97.80
2022-12-03T19:00:17.514Z,94.17
2022-12-03T19:05:35.737Z,92.13
2022-12-03T19:08:12.484Z,95.82
2022-12-03T19:10:43.470Z,96.57
2022-12-03T19:13:12.079Z,92.13
2022-12-03T19:15:41.098Z,93.27
2022-12-03T19:18:09.487Z,90.23
2022-12-03T19:20:41.830Z,92.23
2022-12-03T19:23:10.823Z,99.77
2022-12-03T19:25:39.095Z,103.30
2022-12-03T19:28:09.334Z,97.57
2022-12-03T19:30:37.608Z,99.78
2022-12-03T19:33:05.889Z,101.73
2022-12-03T19:35:40.128Z,98.43
2022-12-03T19:38:08.457Z,86.53
2022-12-03T19:40:36.782Z,94.60
2022-12-03T19:43:05.102Z,87.70
2022-12-03T19:45:41.592Z,88.53
2022-12-03T19:48:09.913Z,93.57
2022-12-03T19:50:38.163Z,93.10
2022-12-03T19:53:06.475Z,97.00
2022-12-03T19:55:36.725Z,99.13
2022-12-03T19:58:04.999Z,96.68
2022-12-03T20:00:35.648Z,99.37
2022-12-03T20:03:04.393Z,93.97
2022-12-03T20:05:37.965Z,103.43
2022-12-03T20:08:08.977Z,95.67
2022-12-03T20:10:37.644Z,97.30
2022-12-03T20:13:06.260Z,104.73
2022-12-03T20:15:37.829Z,96.07
2022-12-03T20:18:06.371Z,93.43
2022-12-03T20:20:34.623Z,92.97
2022-12-03T20:23:04.351Z,97.78
2022-12-03T20:25:32.684Z,96.70
2022-12-03T20:28:00.898Z,89.50
2022-12-03T20:30:29.243Z,90.00
2022-12-03T20:32:58.811Z,98.07
2022-12-03T20:35:27.140Z,87.50
2022-12-03T20:37:55.364Z,89.50
2022-12-03T20:40:23.625Z,94.03
2022-12-03T20:42:52.606Z,93.10
2022-12-03T20:45:20.961Z,98.67
2022-12-03T20:47:49.895Z,94.17
2022-12-03T20:50:19.727Z,109.77
2022-12-03T20:53:09.336Z,107.05
2022-12-03T20:55:36.235Z,98.53
2022-12-03T20:58:04.923Z,104.60
2022-12-03T21:00:33.305Z,101.23
2022-12-03T21:03:01.566Z,100.53
2022-12-03T21:05:31.294Z,103.17
2022-12-03T21:07:59.567Z,105.35
2022-12-03T21:10:36.957Z,103.67
2022-12-03T21:13:05.229Z,102.57
2022-12-03T21:15:33.432Z,98.07
2022-12-03T21:18:01.788Z,96.40
2022-12-03T21:20:31.418Z,98.57
2022-12-03T21:22:59.689Z,97.38
2022-12-03T21:25:28.040Z,108.67
2022-12-03T21:27:56.365Z,97.53
2022-12-03T21:30:24.648Z,97.93
2022-12-03T21:32:52.984Z,98.83
2022-12-03T21:35:21.165Z,103.10
2022-12-03T21:37:51.637Z,94.20
2022-12-03T21:42:48.545Z,101.43
2022-12-03T21:45:17.311Z,91.70
2022-12-03T21:47:49.291Z,91.90
2022-12-03T21:50:17.946Z,98.73
2022-12-03T21:52:46.153Z,96.93
2022-12-03T21:55:15.920Z,94.83
2022-12-03T21:57:44.339Z,100.22
2022-12-03T22:00:14.483Z,102.50
2022-12-03T22:02:42.781Z,92.30
2022-12-03T22:05:12.746Z,101.57
2022-12-03T22:07:41.635Z,88.55
2022-12-03T22:10:12.594Z,96.33
2022-12-03T22:12:42.288Z,98.90
2022-12-03T22:15:18.189Z,93.72
2022-12-03T22:17:47.442Z,88.57
2022-12-03T22:20:16.266Z,90.30
2022-12-03T22:22:44.536Z,93.70
2022-12-03T22:25:12.824Z,92.27
2022-12-03T22:27:42.496Z,88.30
2022-12-03T22:30:11.477Z,91.40
2022-12-03T22:32:39.776Z,90.60
2022-12-03T22:35:09.166Z,94.90
2022-12-03T22:37:37.387Z,92.63
2022-12-03T22:40:07.087Z,90.63
2022-12-03T22:42:35.345Z,89.72
2022-12-03T22:45:06.020Z,89.87
2022-12-03T22:47:34.272Z,90.60
2022-12-03T22:50:02.534Z,90.63
2022-12-03T22:52:31.671Z,87.60
2022-12-03T22:54:59.892Z,91.97
2022-12-03T22:57:28.193Z,86.67
2022-12-03T22:59:56.729Z,92.97
2022-12-03T23:02:26.621Z,88.80
2022-12-03T23:04:56.721Z,87.50
2022-12-03T23:07:24.991Z,91.50
2022-12-03T23:09:53.580Z,91.10
2022-12-03T23:12:22.317Z,89.70
2022-12-03T23:14:55.140Z,85.73
2022-12-03T23:17:23.439Z,86.70
2022-12-03T23:19:53.511Z,85.83
2022-12-03T23:22:22.003Z,91.10
2022-12-03T23:24:50.232Z,85.20
2022-12-03T23:27:18.453Z,90.63
2022-12-03T23:29:46.663Z,85.57
2022-12-03T23:32:14.932Z,85.67
2022-12-03T23:34:43.211Z,90.17
2022-12-03T23:37:12.958Z,85.70
2022-12-03T23:39:41.488Z,87.55
2022-12-03T23:42:09.738Z,91.37
2022-12-03T23:44:37.993Z,86.10
2022-12-03T23:47:06.392Z,89.70
2022-12-03T23:49:34.775Z,89.60
2022-12-03T23:52:03.061Z,92.87
2022-12-03T23:54:32.716Z,95.90
2022-12-03T23:57:00.958Z,91.25
2022-12-03T23:59:29.264Z,93.40
